Criccieth, United Kingdom
Current Conditions -  °F | °C
As of 1:50 PM on Monday 24 Nov 2014 (Local Time) from EGOV Reporting Station
Scattered Clouds Scattered Clouds  
Wind Chill: 50°   Ceiling: Unl
Heat Index: 50°   Visibility: 6mi
Dew Point: 36°   Wind: 15mph
Humidity: 58%   Direction: 230°SW
Pressure: 30.3"   Gusts: NA
Location:  52.92°N, 4.23°W
Report Text: EGOV 241350Z 23013KT 9999 SCT040 SCT220 10/02 Q1026 BLU NOSIG
Loading
Personal Weather Stations






























Interactive Weather Map New forecast layout! Learn more

10-Day Weather Forecast

Advertisements
Track Severe Weather on mobile